sensor_id;sensor_type;location;lat;lon;timestamp;pressure;altitude;pressure_sealevel;temperature;humidity
16738;BME280;17906;47.684;10.806;2023-04-29T00:01:01;93051.59;;;8.85;100.00
16738;BME280;17906;47.684;10.806;2023-04-29T00:03:29;93037.88;;;8.74;100.00
16738;BME280;17906;47.684;10.806;2023-04-29T00:05:56;93035.19;;;8.74;100.00
16738;BME280;17906;47.684;10.806;2023-04-29T00:08:23;93040.75;;;8.68;100.00
16738;BME280;17906;47.684;10.806;2023-04-29T00:10:49;93039.69;;;8.69;100.00
16738;BME280;17906;47.684;10.806;2023-04-29T00:13:16;93036.31;;;8.62;100.00
16738;BME280;17906;47.684;10.806;2023-04-29T00:15:43;93040.38;;;8.64;100.00
16738;BME280;17906;47.684;10.806;2023-04-29T00:18:11;93023.56;;;8.74;100.00
16738;BME280;17906;47.684;10.806;2023-04-29T00:20:38;93030.84;;;8.73;100.00
16738;BME280;17906;47.684;10.806;2023-04-29T00:23:05;93019.47;;;8.71;100.00
16738;BME280;17906;47.684;10.806;2023-04-29T00:25:32;93018.16;;;8.74;100.00
16738;BME280;17906;47.684;10.806;2023-04-29T00:27:59;93028.75;;;8.64;100.00
16738;BME280;17906;47.684;10.806;2023-04-29T00:30:26;93021.88;;;8.56;100.00
16738;BME280;17906;47.684;10.806;2023-04-29T00:32:53;93015.88;;;8.54;100.00
16738;BME280;17906;47.684;10.806;2023-04-29T00:35:21;93012.97;;;8.56;100.00
16738;BME280;17906;47.684;10.806;2023-04-29T00:37:47;93020.81;;;8.57;100.00
16738;BME280;17906;47.684;10.806;2023-04-29T00:40:14;93012.22;;;8.60;100.00
16738;BME280;17906;47.684;10.806;2023-04-29T00:42:41;93020.81;;;8.57;100.00
16738;BME280;17906;47.684;10.806;2023-04-29T00:45:09;93015.66;;;8.56;100.00
16738;BME280;17906;47.684;10.806;2023-04-29T00:47:37;93007.16;;;8.64;100.00
16738;BME280;17906;47.684;10.806;2023-04-29T00:50:04;93012.97;;;8.56;100.00
16738;BME280;17906;47.684;10.806;2023-04-29T00:52:33;93010.88;;;8.46;100.00
16738;BME280;17906;47.684;10.806;2023-04-29T00:55:01;92999.91;;;8.53;100.00
16738;BME280;17906;47.684;10.806;2023-04-29T00:57:27;93004.13;;;8.60;100.00
16738;BME280;17906;47.684;10.806;2023-04-29T00:59:55;93002.56;;;8.64;100.00
16738;BME280;17906;47.684;10.806;2023-04-29T01:02:22;93000.47;;;8.66;100.00
16738;BME280;17906;47.684;10.806;2023-04-29T01:04:49;93008.38;;;8.56;100.00
16738;BME280;17906;47.684;10.806;2023-04-29T01:07:19;93009.66;;;8.54;100.00
16738;BME280;17906;47.684;10.806;2023-04-29T01:09:54;93007.78;;;8.54;100.00
16738;BME280;17906;47.684;10.806;2023-04-29T01:12:31;93011.09;;;8.56;100.00
16738;BME280;17906;47.684;10.806;2023-04-29T01:15:03;93014.81;;;8.55;100.00
16738;BME280;17906;47.684;10.806;2023-04-29T01:17:35;93020.91;;;8.62;100.00
16738;BME280;17906;47.684;10.806;2023-04-29T01:20:03;93014.34;;;8.58;100.00
16738;BME280;17906;47.684;10.806;2023-04-29T01:22:32;93018.59;;;8.54;100.00
16738;BME280;17906;47.684;10.806;2023-04-29T01:25:00;93008.84;;;8.53;100.00
16738;BME280;17906;47.684;10.806;2023-04-29T01:27:30;93015.88;;;8.54;100.00
16738;BME280;17906;47.684;10.806;2023-04-29T01:30:01;93009.78;;;8.59;100.00
16738;BME280;17906;47.684;10.806;2023-04-29T01:32:40;93013.28;;;8.59;100.00
16738;BME280;17906;47.684;10.806;2023-04-29T01:35:20;93009.03;;;8.63;100.00
16738;BME280;17906;47.684;10.806;2023-04-29T01:37:55;93010.34;;;8.61;100.00
16738;BME280;17906;47.684;10.806;2023-04-29T01:40:33;93011.41;;;8.60;100.00
16738;BME280;17906;47.684;10.806;2023-04-29T01:43:04;93007.31;;;8.57;100.00
16738;BME280;17906;47.684;10.806;2023-04-29T01:45:37;92995.09;;;8.55;100.00
16738;BME280;17906;47.684;10.806;2023-04-29T01:48:05;92991.56;;;8.54;100.00
16738;BME280;17906;47.684;10.806;2023-04-29T01:50:32;92998.97;;;8.59;100.00
16738;BME280;17906;47.684;10.806;2023-04-29T01:52:59;92997.66;;;8.61;100.00
16738;BME280;17906;47.684;10.806;2023-04-29T01:55:27;93007.56;;;8.56;100.00
16738;BME280;17906;47.684;10.806;2023-04-29T01:57:53;93003.44;;;8.53;100.00
16738;BME280;17906;47.684;10.806;2023-04-29T02:00:20;93006.97;;;8.54;100.00
16738;BME280;17906;47.684;10.806;2023-04-29T02:02:46;92999.66;;;8.54;100.00
16738;BME280;17906;47.684;10.806;2023-04-29T02:05:13;93008.03;;;8.53;100.00
16738;BME280;17906;47.684;10.806;2023-04-29T02:07:39;93003.19;;;8.55;100.00
16738;BME280;17906;47.684;10.806;2023-04-29T02:10:09;93000.50;;;8.55;100.00
16738;BME280;17906;47.684;10.806;2023-04-29T02:12:37;93007.88;;;8.59;100.00
16738;BME280;17906;47.684;10.806;2023-04-29T02:15:05;92996.06;;;8.49;100.00
16738;BME280;17906;47.684;10.806;2023-04-29T02:17:32;92997.22;;;8.53;100.00
16738;BME280;17906;47.684;10.806;2023-04-29T02:19:59;93003.34;;;8.48;100.00
16738;BME280;17906;47.684;10.806;2023-04-29T02:22:25;93016.94;;;8.53;100.00
16738;BME280;17906;47.684;10.806;2023-04-29T02:24:52;93006.63;;;8.50;100.00
16738;BME280;17906;47.684;10.806;2023-04-29T02:27:18;92996.31;;;8.47;100.00
16738;BME280;17906;47.684;10.806;2023-04-29T02:29:47;93003.66;;;8.35;100.00
16738;BME280;17906;47.684;10.806;2023-04-29T02:32:13;92996.59;;;8.34;100.00
16738;BME280;17906;47.684;10.806;2023-04-29T02:34:40;93002.97;;;8.28;100.00
16738;BME280;17906;47.684;10.806;2023-04-29T02:37:06;93001.81;;;8.24;100.00
16738;BME280;17906;47.684;10.806;2023-04-29T02:39:33;93007.41;;;8.22;100.00
16738;BME280;17906;47.684;10.806;2023-04-29T02:41:59;93012.41;;;8.13;100.00
16738;BME280;17906;47.684;10.806;2023-04-29T02:44:27;92997.72;;;8.09;100.00
16738;BME280;17906;47.684;10.806;2023-04-29T02:46:56;92998.44;;;8.05;100.00
16738;BME280;17906;47.684;10.806;2023-04-29T02:49:23;93004.91;;;8.04;100.00
16738;BME280;17906;47.684;10.806;2023-04-29T02:51:50;93004.34;;;8.02;100.00
16738;BME280;17906;47.684;10.806;2023-04-29T02:54:16;93012.66;;;8.00;100.00
16738;BME280;17906;47.684;10.806;2023-04-29T02:56:43;93009.63;;;7.97;100.00
16738;BME280;17906;47.684;10.806;2023-04-29T02:59:09;93007.25;;;8.00;100.00
16738;BME280;17906;47.684;10.806;2023-04-29T03:01:36;92996.81;;;8.04;100.00
16738;BME280;17906;47.684;10.806;2023-04-29T03:04:04;93008.44;;;8.04;100.00
16738;BME280;17906;47.684;10.806;2023-04-29T03:06:32;93011.50;;;7.96;100.00
16738;BME280;17906;47.684;10.806;2023-04-29T03:08:58;93010.75;;;8.01;100.00
16738;BME280;17906;47.684;10.806;2023-04-29T03:11:25;93012.66;;;8.00;100.00
16738;BME280;17906;47.684;10.806;2023-04-29T03:13:52;93021.94;;;8.04;100.00
16738;BME280;17906;47.684;10.806;2023-04-29T03:16:19;93022.03;;;8.09;100.00
16738;BME280;17906;47.684;10.806;2023-04-29T03:18:46;93028.38;;;8.03;100.00
16738;BME280;17906;47.684;10.806;2023-04-29T03:21:14;93022.88;;;7.98;100.00
16738;BME280;17906;47.684;10.806;2023-04-29T03:23:41;93020.75;;;8.00;100.00
16738;BME280;17906;47.684;10.806;2023-04-29T03:26:08;93019.72;;;8.01;100.00
16738;BME280;17906;47.684;10.806;2023-04-29T03:28:35;93020.06;;;7.93;100.00
16738;BME280;17906;47.684;10.806;2023-04-29T03:31:02;93018.28;;;7.87;100.00
16738;BME280;17906;47.684;10.806;2023-04-29T03:33:28;93019.91;;;7.88;100.00
16738;BME280;17906;47.684;10.806;2023-04-29T03:35:55;93011.50;;;7.84;100.00
16738;BME280;17906;47.684;10.806;2023-04-29T03:38:23;93004.69;;;7.94;100.00
16738;BME280;17906;47.684;10.806;2023-04-29T03:40:50;93009.38;;;7.98;100.00
16738;BME280;17906;47.684;10.806;2023-04-29T03:43:16;93011.81;;;8.00;100.00
16738;BME280;17906;47.684;10.806;2023-04-29T03:45:43;93003.53;;;8.01;100.00
16738;BME280;17906;47.684;10.806;2023-04-29T03:48:10;93004.78;;;7.99;100.00
16738;BME280;17906;47.684;10.806;2023-04-29T03:50:37;93005.59;;;7.99;100.00
16738;BME280;17906;47.684;10.806;2023-04-29T03:53:04;93001.44;;;7.92;100.00
16738;BME280;17906;47.684;10.806;2023-04-29T03:55:32;93002.47;;;7.91;100.00
16738;BME280;17906;47.684;10.806;2023-04-29T03:57:58;93000.94;;;7.83;100.00
16738;BME280;17906;47.684;10.806;2023-04-29T04:00:25;93002.69;;;7.77;100.00
16738;BME280;17906;47.684;10.806;2023-04-29T04:02:55;93003.16;;;7.74;100.00
16738;BME280;17906;47.684;10.806;2023-04-29T04:05:21;93003.66;;;7.71;100.00
16738;BME280;17906;47.684;10.806;2023-04-29T04:07:49;93005.28;;;7.72;100.00
16738;BME280;17906;47.684;10.806;2023-04-29T04:10:16;93003.66;;;7.71;100.00
16738;BME280;17906;47.684;10.806;2023-04-29T04:12:44;93008.56;;;7.74;100.00
16738;BME280;17906;47.684;10.806;2023-04-29T04:15:11;93010.22;;;7.75;100.00
16738;BME280;17906;47.684;10.806;2023-04-29T04:17:38;93016.31;;;7.71;100.00
16738;BME280;17906;47.684;10.806;2023-04-29T04:20:05;93013.88;;;7.69;100.00
16738;BME280;17906;47.684;10.806;2023-04-29T04:22:32;93018.31;;;7.64;100.00
16738;BME280;17906;47.684;10.806;2023-04-29T04:24:58;93018.91;;;7.66;100.00
16738;BME280;17906;47.684;10.806;2023-04-29T04:27:25;93016.09;;;7.61;100.00
16738;BME280;17906;47.684;10.806;2023-04-29T04:29:53;93019.03;;;7.59;100.00
16738;BME280;17906;47.684;10.806;2023-04-29T04:32:20;93026.41;;;7.52;100.00
16738;BME280;17906;47.684;10.806;2023-04-29T04:34:47;93023.00;;;7.45;100.00
16738;BME280;17906;47.684;10.806;2023-04-29T04:37:14;93028.06;;;7.41;100.00
16738;BME280;17906;47.684;10.806;2023-04-29T04:39:42;93026.53;;;7.45;100.00
16738;BME280;17906;47.684;10.806;2023-04-29T04:42:08;93022.56;;;7.48;100.00
16738;BME280;17906;47.684;10.806;2023-04-29T04:44:35;93021.03;;;7.52;100.00
16738;BME280;17906;47.684;10.806;2023-04-29T04:47:03;93025.47;;;7.46;100.00
16738;BME280;17906;47.684;10.806;2023-04-29T04:49:30;93027.47;;;7.63;100.00
16738;BME280;17906;47.684;10.806;2023-04-29T04:51:57;93036.38;;;7.63;100.00
16738;BME280;17906;47.684;10.806;2023-04-29T04:54:23;93031.31;;;7.67;100.00
16738;BME280;17906;47.684;10.806;2023-04-29T04:56:50;93025.69;;;7.68;100.00
16738;BME280;17906;47.684;10.806;2023-04-29T04:59:17;93021.13;;;7.69;100.00
16738;BME280;17906;47.684;10.806;2023-04-29T05:01:44;93029.34;;;7.74;100.00
16738;BME280;17906;47.684;10.806;2023-04-29T05:04:11;93026.53;;;7.80;100.00
16738;BME280;17906;47.684;10.806;2023-04-29T05:06:39;93022.84;;;7.86;100.00
16738;BME280;17906;47.684;10.806;2023-04-29T05:09:06;93018.19;;;7.94;100.00
16738;BME280;17906;47.684;10.806;2023-04-29T05:11:33;93027.56;;;8.03;100.00
16738;BME280;17906;47.684;10.806;2023-04-29T05:13:59;93026.84;;;8.07;100.00
16738;BME280;17906;47.684;10.806;2023-04-29T05:16:26;93034.38;;;8.05;100.00
16738;BME280;17906;47.684;10.806;2023-04-29T05:18:52;93033.63;;;8.10;100.00
16738;BME280;17906;47.684;10.806;2023-04-29T05:21:20;93033.19;;;8.13;100.00
16738;BME280;17906;47.684;10.806;2023-04-29T05:23:47;93041.72;;;8.22;100.00
16738;BME280;17906;47.684;10.806;2023-04-29T05:26:13;93035.38;;;8.28;100.00
16738;BME280;17906;47.684;10.806;2023-04-29T05:28:40;93044.63;;;8.32;100.00
16738;BME280;17906;47.684;10.806;2023-04-29T05:31:07;93046.13;;;8.39;100.00
16738;BME280;17906;47.684;10.806;2023-04-29T05:33:33;93047.06;;;8.45;100.00
16738;BME280;17906;47.684;10.806;2023-04-29T05:36:00;93053.03;;;8.47;100.00
16738;BME280;17906;47.684;10.806;2023-04-29T05:38:28;93058.03;;;8.55;100.00
16738;BME280;17906;47.684;10.806;2023-04-29T05:40:54;93058.72;;;8.62;100.00
16738;BME280;17906;47.684;10.806;2023-04-29T05:43:21;93055.31;;;8.67;100.00
16738;BME280;17906;47.684;10.806;2023-04-29T05:45:48;93052.22;;;8.75;100.00
16738;BME280;17906;47.684;10.806;2023-04-29T05:48:14;93046.91;;;8.80;100.00
16738;BME280;17906;47.684;10.806;2023-04-29T05:50:41;93061.91;;;8.88;100.00
16738;BME280;17906;47.684;10.806;2023-04-29T05:53:08;93056.84;;;8.91;100.00
16738;BME280;17906;47.684;10.806;2023-04-29T05:55:35;93051.50;;;9.25;100.00
16738;BME280;17906;47.684;10.806;2023-04-29T05:58:02;93059.78;;;9.35;100.00
16738;BME280;17906;47.684;10.806;2023-04-29T06:00:29;93061.66;;;9.35;100.00
16738;BME280;17906;47.684;10.806;2023-04-29T06:02:55;93065.44;;;9.34;100.00
16738;BME280;17906;47.684;10.806;2023-04-29T06:05:22;93061.81;;;9.28;100.00
16738;BME280;17906;47.684;10.806;2023-04-29T06:07:49;93069.28;;;9.21;100.00
16738;BME280;17906;47.684;10.806;2023-04-29T06:10:16;93068.28;;;9.10;100.00
16738;BME280;17906;47.684;10.806;2023-04-29T06:12:44;93077.28;;;9.16;100.00
16738;BME280;17906;47.684;10.806;2023-04-29T06:15:11;93069.75;;;9.18;100.00
16738;BME280;17906;47.684;10.806;2023-04-29T06:17:37;93080.13;;;9.09;100.00
16738;BME280;17906;47.684;10.806;2023-04-29T06:20:05;93080.06;;;9.04;100.00
16738;BME280;17906;47.684;10.806;2023-04-29T06:22:32;93084.41;;;9.05;100.00
16738;BME280;17906;47.684;10.806;2023-04-29T06:24:59;93087.34;;;9.03;100.00
16738;BME280;17906;47.684;10.806;2023-04-29T06:27:25;93087.22;;;9.10;100.00
16738;BME280;17906;47.684;10.806;2023-04-29T06:29:53;93076.72;;;9.14;100.00
16738;BME280;17906;47.684;10.806;2023-04-29T06:32:20;93088.88;;;9.28;100.00
16738;BME280;17906;47.684;10.806;2023-04-29T06:34:47;93084.38;;;9.34;100.00
16738;BME280;17906;47.684;10.806;2023-04-29T06:37:14;93088.06;;;9.44;100.00
16738;BME280;17906;47.684;10.806;2023-04-29T06:39:41;93079.72;;;9.46;100.00
16738;BME280;17906;47.684;10.806;2023-04-29T06:42:07;93080.72;;;9.56;100.00
16738;BME280;17906;47.684;10.806;2023-04-29T06:44:34;93093.94;;;9.86;100.00
16738;BME280;17906;47.684;10.806;2023-04-29T06:47:02;93084.47;;;10.28;100.00
16738;BME280;17906;47.684;10.806;2023-04-29T06:49:28;93085.09;;;10.73;100.00
16738;BME280;17906;47.684;10.806;2023-04-29T06:51:55;93084.63;;;11.03;100.00
16738;BME280;17906;47.684;10.806;2023-04-29T06:54:21;93073.53;;;11.32;100.00
16738;BME280;17906;47.684;10.806;2023-04-29T06:56:48;93073.53;;;11.64;100.00
16738;BME280;17906;47.684;10.806;2023-04-29T06:59:15;93066.41;;;11.90;100.00
16738;BME280;17906;47.684;10.806;2023-04-29T07:01:41;93078.09;;;12.28;100.00
16738;BME280;17906;47.684;10.806;2023-04-29T07:04:09;93075.25;;;12.55;100.00
16738;BME280;17906;47.684;10.806;2023-04-29T07:06:36;93081.06;;;12.78;96.22
16738;BME280;17906;47.684;10.806;2023-04-29T07:09:02;93083.09;;;13.08;93.00
16738;BME280;17906;47.684;10.806;2023-04-29T07:11:29;93083.38;;;13.12;94.62
16738;BME280;17906;47.684;10.806;2023-04-29T07:13:56;93092.19;;;13.34;94.44
16738;BME280;17906;47.684;10.806;2023-04-29T07:16:22;93086.50;;;13.61;90.11
16738;BME280;17906;47.684;10.806;2023-04-29T07:18:50;93090.03;;;13.52;89.36
16738;BME280;17906;47.684;10.806;2023-04-29T07:21:18;93091.59;;;13.32;93.69
16738;BME280;17906;47.684;10.806;2023-04-29T07:23:45;93098.28;;;12.99;94.39
16738;BME280;17906;47.684;10.806;2023-04-29T07:26:13;93098.28;;;12.99;94.39
16738;BME280;17906;47.684;10.806;2023-04-29T07:28:41;93092.38;;;12.50;97.38
16738;BME280;17906;47.684;10.806;2023-04-29T07:31:07;93083.22;;;12.71;94.84
16738;BME280;17906;47.684;10.806;2023-04-29T07:33:35;93085.00;;;13.08;97.12
16738;BME280;17906;47.684;10.806;2023-04-29T07:36:02;93079.41;;;13.45;89.67
16738;BME280;17906;47.684;10.806;2023-04-29T07:38:30;93096.00;;;13.39;91.21
16738;BME280;17906;47.684;10.806;2023-04-29T07:40:56;93092.66;;;13.26;89.53
16738;BME280;17906;47.684;10.806;2023-04-29T07:43:23;93097.97;;;12.86;93.13
16738;BME280;17906;47.684;10.806;2023-04-29T07:45:49;93088.06;;;12.59;94.31
16738;BME280;17906;47.684;10.806;2023-04-29T07:48:16;93087.53;;;12.57;94.33
16738;BME280;17906;47.684;10.806;2023-04-29T07:50:43;93096.69;;;12.46;97.01
16738;BME280;17906;47.684;10.806;2023-04-29T07:53:09;93090.88;;;12.27;99.19
16738;BME280;17906;47.684;10.806;2023-04-29T07:55:37;93089.13;;;12.53;100.00
16738;BME280;17906;47.684;10.806;2023-04-29T07:58:04;93082.88;;;13.25;97.06
16738;BME280;17906;47.684;10.806;2023-04-29T08:00:30;93084.31;;;13.84;91.81
16738;BME280;17906;47.684;10.806;2023-04-29T08:02:57;93076.38;;;14.54;89.90
16738;BME280;17906;47.684;10.806;2023-04-29T08:05:25;93073.41;;;15.15;85.54
16738;BME280;17906;47.684;10.806;2023-04-29T08:07:51;93085.03;;;15.46;80.47
16738;BME280;17906;47.684;10.806;2023-04-29T08:10:18;93078.38;;;15.07;79.57
16738;BME280;17906;47.684;10.806;2023-04-29T08:12:48;93087.75;;;14.86;81.80
16738;BME280;17906;47.684;10.806;2023-04-29T08:15:15;93082.03;;;14.72;83.19
16738;BME280;17906;47.684;10.806;2023-04-29T08:17:42;93084.25;;;15.35;80.45
16738;BME280;17906;47.684;10.806;2023-04-29T08:20:10;93082.16;;;16.05;77.08
16738;BME280;17906;47.684;10.806;2023-04-29T08:22:36;93073.53;;;16.22;73.84
16738;BME280;17906;47.684;10.806;2023-04-29T08:25:03;93073.59;;;16.46;73.30
16738;BME280;17906;47.684;10.806;2023-04-29T08:27:30;93078.34;;;17.12;73.73
16738;BME280;17906;47.684;10.806;2023-04-29T08:29:58;93070.59;;;17.19;64.34
16738;BME280;17906;47.684;10.806;2023-04-29T08:32:24;93078.69;;;16.58;66.64
16738;BME280;17906;47.684;10.806;2023-04-29T08:34:51;93078.88;;;16.90;66.57
16738;BME280;17906;47.684;10.806;2023-04-29T08:37:18;93076.50;;;17.31;65.72
16738;BME280;17906;47.684;10.806;2023-04-29T08:39:44;93081.97;;;17.31;65.87
16738;BME280;17906;47.684;10.806;2023-04-29T08:42:12;93088.53;;;17.35;65.05
16738;BME280;17906;47.684;10.806;2023-04-29T08:44:39;93083.72;;;16.74;65.52
16738;BME280;17906;47.684;10.806;2023-04-29T08:47:07;93078.38;;;15.62;69.62
16738;BME280;17906;47.684;10.806;2023-04-29T08:49:34;93076.66;;;15.71;71.87
16738;BME280;17906;47.684;10.806;2023-04-29T08:52:02;93079.91;;;16.46;66.94
16738;BME280;17906;47.684;10.806;2023-04-29T08:54:30;93070.53;;;17.48;65.15
16738;BME280;17906;47.684;10.806;2023-04-29T08:56:57;93075.38;;;17.32;61.41
16738;BME280;17906;47.684;10.806;2023-04-29T08:59:27;93072.84;;;17.79;61.98
16738;BME280;17906;47.684;10.806;2023-04-29T09:01:55;93079.72;;;17.57;61.62
16738;BME280;17906;47.684;10.806;2023-04-29T09:04:31;93076.69;;;18.15;61.03
16738;BME280;17906;47.684;10.806;2023-04-29T09:07:04;93069.50;;;17.82;61.10
16738;BME280;17906;47.684;10.806;2023-04-29T09:09:31;93077.03;;;16.86;60.93
16738;BME280;17906;47.684;10.806;2023-04-29T09:11:58;93082.94;;;16.11;61.53
16738;BME280;17906;47.684;10.806;2023-04-29T09:14:25;93083.16;;;16.14;64.31
16738;BME280;17906;47.684;10.806;2023-04-29T09:16:51;93074.00;;;16.87;63.86
16738;BME280;17906;47.684;10.806;2023-04-29T09:19:30;93082.31;;;17.86;61.12
16738;BME280;17906;47.684;10.806;2023-04-29T09:21:57;93080.66;;;17.66;58.52
16738;BME280;17906;47.684;10.806;2023-04-29T09:24:25;93067.19;;;17.89;58.97
16738;BME280;17906;47.684;10.806;2023-04-29T09:26:51;93064.41;;;18.73;56.77
16738;BME280;17906;47.684;10.806;2023-04-29T09:29:18;93054.47;;;18.91;55.16
16738;BME280;17906;47.684;10.806;2023-04-29T09:31:45;93054.47;;;18.91;55.16
16738;BME280;17906;47.684;10.806;2023-04-29T09:34:12;93055.97;;;19.65;52.64
16738;BME280;17906;47.684;10.806;2023-04-29T09:36:45;93060.81;;;19.96;52.49
16738;BME280;17906;47.684;10.806;2023-04-29T09:39:12;93053.53;;;20.45;51.21
16738;BME280;17906;47.684;10.806;2023-04-29T09:41:42;93053.16;;;20.38;46.37
16738;BME280;17906;47.684;10.806;2023-04-29T09:44:22;93052.56;;;20.18;49.11
16738;BME280;17906;47.684;10.806;2023-04-29T09:46:54;93051.47;;;20.06;48.74
16738;BME280;17906;47.684;10.806;2023-04-29T09:49:23;93052.41;;;20.23;50.87
16738;BME280;17906;47.684;10.806;2023-04-29T09:51:56;93058.22;;;19.50;50.03
16738;BME280;17906;47.684;10.806;2023-04-29T09:54:24;93058.97;;;19.42;51.07
16738;BME280;17906;47.684;10.806;2023-04-29T09:56:53;93060.97;;;18.81;49.09
16738;BME280;17906;47.684;10.806;2023-04-29T09:59:20;93067.16;;;18.27;53.84
16738;BME280;17906;47.684;10.806;2023-04-29T10:01:49;93080.47;;;17.63;55.68
16738;BME280;17906;47.684;10.806;2023-04-29T10:04:17;93083.47;;;17.19;57.82
16738;BME280;17906;47.684;10.806;2023-04-29T10:06:44;93077.63;;;16.83;58.45
16738;BME280;17906;47.684;10.806;2023-04-29T10:09:14;93083.13;;;16.19;57.29
16738;BME280;17906;47.684;10.806;2023-04-29T10:11:41;93075.00;;;16.09;60.07
16738;BME280;17906;47.684;10.806;2023-04-29T10:14:11;93071.53;;;16.62;61.44
16738;BME280;17906;47.684;10.806;2023-04-29T10:16:44;93070.75;;;17.71;58.09
16738;BME280;17906;47.684;10.806;2023-04-29T10:19:14;93060.19;;;18.34;59.44
16738;BME280;17906;47.684;10.806;2023-04-29T10:21:44;93056.97;;;18.60;53.58
16738;BME280;17906;47.684;10.806;2023-04-29T10:24:13;93046.31;;;18.72;48.60
16738;BME280;17906;47.684;10.806;2023-04-29T10:26:42;93043.63;;;18.99;49.92
16738;BME280;17906;47.684;10.806;2023-04-29T10:29:10;93042.41;;;19.19;51.15
16738;BME280;17906;47.684;10.806;2023-04-29T10:31:40;93051.66;;;19.23;48.13
16738;BME280;17906;47.684;10.806;2023-04-29T10:34:08;93046.50;;;18.75;51.95
16738;BME280;17906;47.684;10.806;2023-04-29T10:36:36;93053.53;;;18.03;56.64
16738;BME280;17906;47.684;10.806;2023-04-29T10:39:03;93080.75;;;16.95;68.04
16738;BME280;17906;47.684;10.806;2023-04-29T10:41:36;93075.47;;;15.82;73.07
16738;BME280;17906;47.684;10.806;2023-04-29T10:44:09;93069.47;;;15.46;75.50
16738;BME280;17906;47.684;10.806;2023-04-29T10:46:35;93060.19;;;14.88;79.97
16738;BME280;17906;47.684;10.806;2023-04-29T10:49:03;93058.66;;;15.16;79.68
16738;BME280;17906;47.684;10.806;2023-04-29T10:51:32;93046.00;;;15.79;80.25
16738;BME280;17906;47.684;10.806;2023-04-29T10:54:01;93051.81;;;16.36;76.14
16738;BME280;17906;47.684;10.806;2023-04-29T10:56:46;93033.97;;;16.67;76.31
16738;BME280;17906;47.684;10.806;2023-04-29T10:59:14;93028.56;;;16.62;73.57
16738;BME280;17906;47.684;10.806;2023-04-29T11:01:46;93040.22;;;16.49;73.17
16738;BME280;17906;47.684;10.806;2023-04-29T11:04:13;93036.25;;;16.84;69.61
16738;BME280;17906;47.684;10.806;2023-04-29T11:06:42;93030.44;;;17.33;73.68
16738;BME280;17906;47.684;10.806;2023-04-29T11:09:11;93025.59;;;18.01;69.90
16738;BME280;17906;47.684;10.806;2023-04-29T11:11:47;93021.66;;;18.39;66.96
16738;BME280;17906;47.684;10.806;2023-04-29T11:14:19;93018.16;;;18.20;60.55
16738;BME280;17906;47.684;10.806;2023-04-29T11:16:47;93018.41;;;18.37;61.63
16738;BME280;17906;47.684;10.806;2023-04-29T11:19:14;93014.34;;;18.48;58.34
16738;BME280;17906;47.684;10.806;2023-04-29T11:21:43;93012.09;;;18.37;59.29
16738;BME280;17906;47.684;10.806;2023-04-29T11:24:10;93017.53;;;17.72;58.93
16738;BME280;17906;47.684;10.806;2023-04-29T11:26:40;93028.22;;;16.93;57.74
16738;BME280;17906;47.684;10.806;2023-04-29T11:29:08;93022.91;;;17.25;58.01
16738;BME280;17906;47.684;10.806;2023-04-29T11:31:35;93019.94;;;17.41;52.66
16738;BME280;17906;47.684;10.806;2023-04-29T11:34:04;93015.97;;;17.84;54.19
16738;BME280;17906;47.684;10.806;2023-04-29T11:36:31;93010.59;;;17.79;55.28
16738;BME280;17906;47.684;10.806;2023-04-29T11:38:59;93012.56;;;17.92;49.90
16738;BME280;17906;47.684;10.806;2023-04-29T11:41:26;93014.72;;;18.09;55.86
16738;BME280;17906;47.684;10.806;2023-04-29T11:43:56;93028.22;;;17.54;51.60
16738;BME280;17906;47.684;10.806;2023-04-29T11:46:24;93025.56;;;17.06;52.37
16738;BME280;17906;47.684;10.806;2023-04-29T11:48:53;93037.66;;;16.81;54.53
16738;BME280;17906;47.684;10.806;2023-04-29T11:51:20;93036.69;;;16.43;56.07
16738;BME280;17906;47.684;10.806;2023-04-29T11:53:46;93043.72;;;16.20;59.14
16738;BME280;17906;47.684;10.806;2023-04-29T11:56:13;93037.06;;;15.69;61.10
16738;BME280;17906;47.684;10.806;2023-04-29T11:58:41;93038.31;;;15.47;60.47
16738;BME280;17906;47.684;10.806;2023-04-29T12:01:08;93038.00;;;15.54;61.93
16738;BME280;17906;47.684;10.806;2023-04-29T12:03:35;93038.63;;;15.41;63.37
16738;BME280;17906;47.684;10.806;2023-04-29T12:06:02;93041.47;;;15.64;62.21
16738;BME280;17906;47.684;10.806;2023-04-29T12:08:29;93038.22;;;15.57;60.43
16738;BME280;17906;47.684;10.806;2023-04-29T12:10:58;93043.09;;;15.65;62.20
16738;BME280;17906;47.684;10.806;2023-04-29T12:13:26;93035.31;;;15.44;60.59
16738;BME280;17906;47.684;10.806;2023-04-29T12:15:54;93041.97;;;15.22;61.13
16738;BME280;17906;47.684;10.806;2023-04-29T12:18:21;93032.94;;;15.27;62.46
16738;BME280;17906;47.684;10.806;2023-04-29T12:20:50;93034.84;;;15.31;62.20
16738;BME280;17906;47.684;10.806;2023-04-29T12:23:18;93037.19;;;15.48;61.03
16738;BME280;17906;47.684;10.806;2023-04-29T12:25:48;93036.31;;;15.58;62.30
16738;BME280;17906;47.684;10.806;2023-04-29T12:28:15;93034.75;;;15.86;60.75
16738;BME280;17906;47.684;10.806;2023-04-29T12:30:42;93034.66;;;16.25;61.86
16738;BME280;17906;47.684;10.806;2023-04-29T12:33:09;93036.44;;;16.11;60.79
16738;BME280;17906;47.684;10.806;2023-04-29T12:35:36;93035.94;;;16.38;62.52
16738;BME280;17906;47.684;10.806;2023-04-29T12:38:04;93036.19;;;16.65;59.55
16738;BME280;17906;47.684;10.806;2023-04-29T12:40:31;93029.84;;;16.94;56.57
16738;BME280;17906;47.684;10.806;2023-04-29T12:43:05;93034.16;;;16.76;59.26
16738;BME280;17906;47.684;10.806;2023-04-29T12:45:33;93028.28;;;16.64;58.39
16738;BME280;17906;47.684;10.806;2023-04-29T12:48:00;93025.84;;;16.62;61.26
16738;BME280;17906;47.684;10.806;2023-04-29T12:50:30;93030.13;;;16.68;58.83
16738;BME280;17906;47.684;10.806;2023-04-29T12:52:58;93035.44;;;16.84;61.51